sensor_id;sensor_type;location;lat;lon;timestamp;pressure;altitude;pressure_sealevel;temperature;humidity
32330;BME280;18807;52.434;13.238;2023-03-01T00:00:27;102744.09;;;-1.12;99.18
32330;BME280;18807;52.434;13.238;2023-03-01T00:08:02;102745.66;;;-1.14;99.30
32330;BME280;18807;52.434;13.238;2023-03-01T00:15:38;102734.88;;;-1.17;100.00
32330;BME280;18807;52.434;13.238;2023-03-01T00:23:14;102727.09;;;-1.25;99.58
32330;BME280;18807;52.434;13.238;2023-03-01T00:30:48;102720.19;;;-1.33;100.00
32330;BME280;18807;52.434;13.238;2023-03-01T00:38:24;102727.31;;;-1.32;100.00
32330;BME280;18807;52.434;13.238;2023-03-01T00:46:00;102704.19;;;-1.36;100.00
32330;BME280;18807;52.434;13.238;2023-03-01T00:53:36;102701.78;;;-1.43;100.00
32330;BME280;18807;52.434;13.238;2023-03-01T01:01:12;102701.34;;;-1.48;100.00
32330;BME280;18807;52.434;13.238;2023-03-01T01:08:53;102709.44;;;-1.55;100.00
32330;BME280;18807;52.434;13.238;2023-03-01T01:16:28;102700.72;;;-1.64;100.00
32330;BME280;18807;52.434;13.238;2023-03-01T01:24:05;102686.38;;;-1.67;100.00
32330;BME280;18807;52.434;13.238;2023-03-01T01:31:41;102684.06;;;-1.64;100.00
32330;BME280;18807;52.434;13.238;2023-03-01T01:39:16;102674.28;;;-1.75;100.00
32330;BME280;18807;52.434;13.238;2023-03-01T01:46:53;102663.69;;;-1.77;100.00
32330;BME280;18807;52.434;13.238;2023-03-01T01:54:33;102661.28;;;-1.84;100.00
32330;BME280;18807;52.434;13.238;2023-03-01T02:02:11;102674.22;;;-1.85;100.00
32330;BME280;18807;52.434;13.238;2023-03-01T02:09:48;102678.09;;;-1.90;100.00
32330;BME280;18807;52.434;13.238;2023-03-01T02:17:23;102665.94;;;-1.90;100.00
32330;BME280;18807;52.434;13.238;2023-03-01T02:25:45;102676.56;;;-1.97;100.00
32330;BME280;18807;52.434;13.238;2023-03-01T02:33:22;102667.38;;;-2.02;100.00
32330;BME280;18807;52.434;13.238;2023-03-01T02:40:56;102673.53;;;-2.02;100.00
32330;BME280;18807;52.434;13.238;2023-03-01T02:48:41;102676.97;;;-2.11;100.00
32330;BME280;18807;52.434;13.238;2023-03-01T02:56:16;102679.50;;;-2.21;100.00
32330;BME280;18807;52.434;13.238;2023-03-01T03:03:51;102658.81;;;-2.18;100.00
32330;BME280;18807;52.434;13.238;2023-03-01T03:11:25;102651.91;;;-2.18;100.00
32330;BME280;18807;52.434;13.238;2023-03-01T03:19:01;102654.09;;;-2.22;100.00
32330;BME280;18807;52.434;13.238;2023-03-01T03:26:37;102656.56;;;-2.24;100.00
32330;BME280;18807;52.434;13.238;2023-03-01T03:34:13;102642.44;;;-2.26;100.00
32330;BME280;18807;52.434;13.238;2023-03-01T03:41:50;102636.25;;;-2.26;100.00
32330;BME280;18807;52.434;13.238;2023-03-01T03:49:26;102633.34;;;-2.29;100.00
32330;BME280;18807;52.434;13.238;2023-03-01T03:56:59;102621.66;;;-2.33;100.00
32330;BME280;18807;52.434;13.238;2023-03-01T04:04:35;102622.31;;;-2.35;100.00
32330;BME280;18807;52.434;13.238;2023-03-01T04:12:08;102612.34;;;-2.39;100.00
32330;BME280;18807;52.434;13.238;2023-03-01T04:19:44;102618.66;;;-2.46;100.00
32330;BME280;18807;52.434;13.238;2023-03-01T04:27:21;102625.13;;;-2.51;100.00
32330;BME280;18807;52.434;13.238;2023-03-01T04:34:56;102609.28;;;-2.52;100.00
32330;BME280;18807;52.434;13.238;2023-03-01T04:42:30;102618.06;;;-2.52;100.00
32330;BME280;18807;52.434;13.238;2023-03-01T04:50:08;102611.34;;;-2.58;100.00
32330;BME280;18807;52.434;13.238;2023-03-01T04:57:43;102603.22;;;-2.61;100.00
32330;BME280;18807;52.434;13.238;2023-03-01T05:05:19;102607.34;;;-2.63;100.00
32330;BME280;18807;52.434;13.238;2023-03-01T05:12:54;102617.66;;;-2.65;100.00
32330;BME280;18807;52.434;13.238;2023-03-01T05:20:31;102604.00;;;-2.71;100.00
32330;BME280;18807;52.434;13.238;2023-03-01T05:28:11;102605.41;;;-2.74;100.00
32330;BME280;18807;52.434;13.238;2023-03-01T05:35:46;102608.78;;;-2.75;100.00
32330;BME280;18807;52.434;13.238;2023-03-01T05:43:21;102596.34;;;-2.78;100.00
32330;BME280;18807;52.434;13.238;2023-03-01T05:50:59;102596.34;;;-2.78;100.00
32330;BME280;18807;52.434;13.238;2023-03-01T05:58:51;102602.34;;;-2.79;100.00
32330;BME280;18807;52.434;13.238;2023-03-01T06:06:26;102601.72;;;-2.76;100.00
32330;BME280;18807;52.434;13.238;2023-03-01T06:14:00;102602.34;;;-2.79;100.00
32330;BME280;18807;52.434;13.238;2023-03-01T06:21:36;102599.88;;;-2.77;100.00
32330;BME280;18807;52.434;13.238;2023-03-01T06:29:10;102599.41;;;-2.73;100.00
32330;BME280;18807;52.434;13.238;2023-03-01T06:36:46;102598.13;;;-2.68;100.00
32330;BME280;18807;52.434;13.238;2023-03-01T06:44:20;102601.50;;;-2.61;100.00
32330;BME280;18807;52.434;13.238;2023-03-01T06:51:55;102607.59;;;-2.52;100.00
32330;BME280;18807;52.434;13.238;2023-03-01T06:59:30;102600.78;;;-2.41;100.00
32330;BME280;18807;52.434;13.238;2023-03-01T07:07:05;102606.91;;;-2.32;100.00
32330;BME280;18807;52.434;13.238;2023-03-01T07:14:39;102608.50;;;-2.16;100.00
32330;BME280;18807;52.434;13.238;2023-03-01T07:22:15;102613.59;;;-1.98;100.00
32330;BME280;18807;52.434;13.238;2023-03-01T07:29:48;102612.72;;;-1.80;100.00
32330;BME280;18807;52.434;13.238;2023-03-01T07:37:23;102620.88;;;-1.59;100.00
32330;BME280;18807;52.434;13.238;2023-03-01T07:44:57;102610.94;;;-1.34;100.00
32330;BME280;18807;52.434;13.238;2023-03-01T07:52:32;102609.31;;;-0.95;100.00
32330;BME280;18807;52.434;13.238;2023-03-01T08:00:09;102614.44;;;-0.48;100.00
32330;BME280;18807;52.434;13.238;2023-03-01T08:07:45;102608.72;;;-0.04;100.00
32330;BME280;18807;52.434;13.238;2023-03-01T08:15:19;102601.06;;;0.39;100.00
32330;BME280;18807;52.434;13.238;2023-03-01T08:23:11;102589.34;;;0.97;100.00
32330;BME280;18807;52.434;13.238;2023-03-01T08:30:46;102581.44;;;1.50;93.92
32330;BME280;18807;52.434;13.238;2023-03-01T08:38:21;102574.84;;;2.33;91.48
32330;BME280;18807;52.434;13.238;2023-03-01T08:45:55;102579.25;;;2.90;82.89
32330;BME280;18807;52.434;13.238;2023-03-01T08:53:31;102574.75;;;3.01;73.61
32330;BME280;18807;52.434;13.238;2023-03-01T09:01:07;102575.78;;;3.62;77.93
32330;BME280;18807;52.434;13.238;2023-03-01T09:08:44;102572.78;;;4.06;75.61
32330;BME280;18807;52.434;13.238;2023-03-01T09:16:20;102559.88;;;4.49;69.62
32330;BME280;18807;52.434;13.238;2023-03-01T09:23:56;102548.16;;;4.45;65.50
32330;BME280;18807;52.434;13.238;2023-03-01T09:31:48;102546.97;;;4.92;63.63
32330;BME280;18807;52.434;13.238;2023-03-01T09:39:24;102543.56;;;5.34;65.20
32330;BME280;18807;52.434;13.238;2023-03-01T09:46:59;102540.31;;;6.07;58.69
32330;BME280;18807;52.434;13.238;2023-03-01T09:54:35;102544.88;;;6.10;56.68
32330;BME280;18807;52.434;13.238;2023-03-01T10:02:21;102533.41;;;6.24;56.75
32330;BME280;18807;52.434;13.238;2023-03-01T10:09:59;102549.41;;;5.83;55.99
32330;BME280;18807;52.434;13.238;2023-03-01T10:17:39;102554.28;;;5.90;56.10
32330;BME280;18807;52.434;13.238;2023-03-01T10:25:24;102547.63;;;5.56;56.75
32330;BME280;18807;52.434;13.238;2023-03-01T10:33:01;102548.41;;;5.41;56.36
32330;BME280;18807;52.434;13.238;2023-03-01T10:40:49;102540.44;;;5.13;55.34
32330;BME280;18807;52.434;13.238;2023-03-01T10:48:24;102530.91;;;5.30;52.07
32330;BME280;18807;52.434;13.238;2023-03-01T10:56:03;102520.28;;;5.70;51.15
32330;BME280;18807;52.434;13.238;2023-03-01T11:03:38;102523.88;;;5.58;52.22
32330;BME280;18807;52.434;13.238;2023-03-01T11:11:31;102502.50;;;5.27;53.15
32330;BME280;18807;52.434;13.238;2023-03-01T11:19:17;102497.25;;;5.42;53.14
32330;BME280;18807;52.434;13.238;2023-03-01T11:26:54;102485.47;;;5.24;52.17
32330;BME280;18807;52.434;13.238;2023-03-01T11:34:47;102479.59;;;5.15;52.16
32330;BME280;18807;52.434;13.238;2023-03-01T11:42:29;102491.25;;;5.31;49.38
32330;BME280;18807;52.434;13.238;2023-03-01T11:50:16;102473.94;;;5.36;50.26
32330;BME280;18807;52.434;13.238;2023-03-01T11:58:31;102485.75;;;5.41;50.67
32330;BME280;18807;52.434;13.238;2023-03-01T12:06:15;102475.38;;;5.59;50.05
32330;BME280;18807;52.434;13.238;2023-03-01T12:14:15;102460.84;;;5.94;47.72
32330;BME280;18807;52.434;13.238;2023-03-01T12:22:07;102447.56;;;6.09;45.52
32330;BME280;18807;52.434;13.238;2023-03-01T12:29:49;102437.00;;;6.40;45.43
32330;BME280;18807;52.434;13.238;2023-03-01T12:37:34;102431.72;;;6.40;45.56
32330;BME280;18807;52.434;13.238;2023-03-01T12:45:32;102421.41;;;6.30;44.72
32330;BME280;18807;52.434;13.238;2023-03-01T12:53:20;102406.13;;;6.26;46.00
32330;BME280;18807;52.434;13.238;2023-03-01T13:01:21;102397.78;;;6.34;44.69
32330;BME280;18807;52.434;13.238;2023-03-01T13:09:01;102392.13;;;6.28;45.75
32330;BME280;18807;52.434;13.238;2023-03-01T13:16:41;102391.63;;;6.35;43.82
32330;BME280;18807;52.434;13.238;2023-03-01T13:24:24;102383.22;;;6.42;43.24
32330;BME280;18807;52.434;13.238;2023-03-01T13:32:00;102387.44;;;6.39;41.83
32330;BME280;18807;52.434;13.238;2023-03-01T13:39:40;102363.63;;;6.40;43.06
32330;BME280;18807;52.434;13.238;2023-03-01T13:47:17;102360.41;;;6.46;43.38
32330;BME280;18807;52.434;13.238;2023-03-01T13:54:52;102363.41;;;6.52;42.24
32330;BME280;18807;52.434;13.238;2023-03-01T14:02:29;102350.31;;;6.55;42.26
32330;BME280;18807;52.434;13.238;2023-03-01T14:10:05;102337.13;;;6.56;41.98
32330;BME280;18807;52.434;13.238;2023-03-01T14:18:04;102324.88;;;6.58;41.66
32330;BME280;18807;52.434;13.238;2023-03-01T14:25:47;102316.47;;;6.51;42.12
32330;BME280;18807;52.434;13.238;2023-03-01T14:33:25;102308.00;;;6.58;41.95
32330;BME280;18807;52.434;13.238;2023-03-01T14:41:04;102298.41;;;6.60;41.50
32330;BME280;18807;52.434;13.238;2023-03-01T14:48:41;102292.56;;;6.51;43.03
32330;BME280;18807;52.434;13.238;2023-03-01T14:56:16;102284.63;;;6.51;41.97
32330;BME280;18807;52.434;13.238;2023-03-01T15:03:53;102276.16;;;6.74;42.73
32330;BME280;18807;52.434;13.238;2023-03-01T15:11:29;102281.88;;;6.81;42.01
32330;BME280;18807;52.434;13.238;2023-03-01T15:19:06;102272.03;;;6.79;42.82
32330;BME280;18807;52.434;13.238;2023-03-01T15:26:42;102278.25;;;6.79;42.34
32330;BME280;18807;52.434;13.238;2023-03-01T15:34:25;102273.84;;;6.80;42.75
32330;BME280;18807;52.434;13.238;2023-03-01T15:41:59;102272.19;;;6.82;42.79
32330;BME280;18807;52.434;13.238;2023-03-01T15:49:39;102272.34;;;6.85;43.73
32330;BME280;18807;52.434;13.238;2023-03-01T15:57:26;102268.69;;;6.83;44.05
32330;BME280;18807;52.434;13.238;2023-03-01T16:05:02;102262.47;;;6.82;44.63
32330;BME280;18807;52.434;13.238;2023-03-01T16:12:36;102253.19;;;6.74;45.51
32330;BME280;18807;52.434;13.238;2023-03-01T16:20:14;102244.56;;;6.62;46.86
32330;BME280;18807;52.434;13.238;2023-03-01T16:28:06;102242.47;;;6.41;48.00
32330;BME280;18807;52.434;13.238;2023-03-01T16:36:01;102242.94;;;6.18;49.55
32330;BME280;18807;52.434;13.238;2023-03-01T16:43:35;102253.63;;;5.88;52.34
32330;BME280;18807;52.434;13.238;2023-03-01T16:51:10;102260.97;;;5.63;54.63
32330;BME280;18807;52.434;13.238;2023-03-01T16:58:45;102266.44;;;5.37;55.80
32330;BME280;18807;52.434;13.238;2023-03-01T17:06:20;102267.38;;;5.09;57.70
32330;BME280;18807;52.434;13.238;2023-03-01T17:13:57;102266.06;;;4.88;58.73
32330;BME280;18807;52.434;13.238;2023-03-01T17:21:32;102271.84;;;4.68;60.46
32330;BME280;18807;52.434;13.238;2023-03-01T17:29:06;102278.41;;;4.47;62.13
32330;BME280;18807;52.434;13.238;2023-03-01T17:36:42;102279.63;;;4.24;62.87
32330;BME280;18807;52.434;13.238;2023-03-01T17:44:18;102291.03;;;4.10;63.74
32330;BME280;18807;52.434;13.238;2023-03-01T17:51:53;102295.94;;;3.91;64.96
32330;BME280;18807;52.434;13.238;2023-03-01T17:59:27;102283.41;;;3.75;65.84
32330;BME280;18807;52.434;13.238;2023-03-01T18:07:06;102297.16;;;3.57;66.70
32330;BME280;18807;52.434;13.238;2023-03-01T18:14:39;102286.47;;;3.42;68.10
32330;BME280;18807;52.434;13.238;2023-03-01T18:22:32;102294.44;;;3.31;69.44
32330;BME280;18807;52.434;13.238;2023-03-01T18:30:11;102292.81;;;3.20;71.09
32330;BME280;18807;52.434;13.238;2023-03-01T18:37:46;102284.47;;;3.01;71.31
32330;BME280;18807;52.434;13.238;2023-03-01T18:45:21;102287.06;;;2.88;71.50
32330;BME280;18807;52.434;13.238;2023-03-01T18:52:57;102291.16;;;2.71;71.87
32330;BME280;18807;52.434;13.238;2023-03-01T19:00:32;102285.72;;;2.57;74.18
32330;BME280;18807;52.434;13.238;2023-03-01T19:08:07;102287.25;;;2.42;74.98
32330;BME280;18807;52.434;13.238;2023-03-01T19:15:41;102289.34;;;2.23;76.11
32330;BME280;18807;52.434;13.238;2023-03-01T19:23:17;102291.47;;;2.15;77.04
32330;BME280;18807;52.434;13.238;2023-03-01T19:30:51;102295.06;;;1.92;78.12
32330;BME280;18807;52.434;13.238;2023-03-01T19:38:26;102294.16;;;1.80;78.66
32330;BME280;18807;52.434;13.238;2023-03-01T19:46:01;102303.28;;;1.74;80.44
32330;BME280;18807;52.434;13.238;2023-03-01T19:53:54;102306.28;;;1.67;80.88
32330;BME280;18807;52.434;13.238;2023-03-01T20:01:27;102318.88;;;1.59;81.73
32330;BME280;18807;52.434;13.238;2023-03-01T20:09:04;102302.25;;;1.49;81.76
32330;BME280;18807;52.434;13.238;2023-03-01T20:16:52;102295.53;;;1.41;83.21
32330;BME280;18807;52.434;13.238;2023-03-01T20:24:27;102299.97;;;1.30;83.33
32330;BME280;18807;52.434;13.238;2023-03-01T20:32:03;102310.91;;;1.13;84.41
32330;BME280;18807;52.434;13.238;2023-03-01T20:39:39;102303.81;;;1.01;86.02
32330;BME280;18807;52.434;13.238;2023-03-01T20:47:14;102295.97;;;0.91;87.23
32330;BME280;18807;52.434;13.238;2023-03-01T20:54:49;102293.69;;;0.84;87.51
32330;BME280;18807;52.434;13.238;2023-03-01T21:02:23;102293.19;;;0.78;88.37
32330;BME280;18807;52.434;13.238;2023-03-01T21:09:58;102294.09;;;0.67;89.36
32330;BME280;18807;52.434;13.238;2023-03-01T21:17:33;102296.59;;;0.65;90.66
32330;BME280;18807;52.434;13.238;2023-03-01T21:25:08;102292.13;;;0.64;91.39
32330;BME280;18807;52.434;13.238;2023-03-01T21:32:43;102286.03;;;0.54;91.66
32330;BME280;18807;52.434;13.238;2023-03-01T21:40:18;102282.53;;;0.43;92.31
32330;BME280;18807;52.434;13.238;2023-03-01T21:47:52;102280.84;;;0.44;93.24
32330;BME280;18807;52.434;13.238;2023-03-01T21:55:28;102272.84;;;0.42;93.65
32330;BME280;18807;52.434;13.238;2023-03-01T22:03:02;102279.56;;;0.39;93.91
32330;BME280;18807;52.434;13.238;2023-03-01T22:10:39;102281.59;;;0.31;94.31
32330;BME280;18807;52.434;13.238;2023-03-01T22:18:15;102291.19;;;0.31;95.53
32330;BME280;18807;52.434;13.238;2023-03-01T22:25:50;102294.25;;;0.25;95.99
32330;BME280;18807;52.434;13.238;2023-03-01T22:33:24;102286.13;;;0.22;95.80
32330;BME280;18807;52.434;13.238;2023-03-01T22:41:02;102263.31;;;0.11;95.46
32330;BME280;18807;52.434;13.238;2023-03-01T22:48:36;102259.22;;;-0.07;97.14
32330;BME280;18807;52.434;13.238;2023-03-01T22:56:13;102257.94;;;-0.12;98.11
32330;BME280;18807;52.434;13.238;2023-03-01T23:03:48;102255.06;;;-0.15;98.49
32330;BME280;18807;52.434;13.238;2023-03-01T23:11:24;102245.47;;;-0.15;98.79
32330;BME280;18807;52.434;13.238;2023-03-01T23:18:58;102243.88;;;-0.13;98.64
32330;BME280;18807;52.434;13.238;2023-03-01T23:26:34;102225.81;;;-0.20;99.05
32330;BME280;18807;52.434;13.238;2023-03-01T23:34:26;102224.66;;;-0.23;99.74
32330;BME280;18807;52.434;13.238;2023-03-01T23:42:01;102221.22;;;-0.22;100.00
32330;BME280;18807;52.434;13.238;2023-03-01T23:49:35;102220.06;;;-0.26;100.00
32330;BME280;18807;52.434;13.238;2023-03-01T23:57:10;102212.72;;;-0.30;100.00
